sensor_id;sensor_type;location;lat;lon;timestamp;P1;durP1;ratioP1;P2;durP2;ratioP2
40433;SDS011;26146;51.114;5.654;2022-11-13T00:02:26;25.97;;;14.70;;
40433;SDS011;26146;51.114;5.654;2022-11-13T00:06:27;28.77;;;15.20;;
40433;SDS011;26146;51.114;5.654;2022-11-13T00:10:28;27.17;;;14.50;;
40433;SDS011;26146;51.114;5.654;2022-11-13T00:14:29;26.17;;;14.30;;
40433;SDS011;26146;51.114;5.654;2022-11-13T00:18:32;25.37;;;14.57;;
40433;SDS011;26146;51.114;5.654;2022-11-13T00:22:34;26.90;;;14.33;;
40433;SDS011;26146;51.114;5.654;2022-11-13T00:26:35;26.73;;;14.20;;
40433;SDS011;26146;51.114;5.654;2022-11-13T00:30:36;25.70;;;14.07;;
40433;SDS011;26146;51.114;5.654;2022-11-13T00:34:37;26.87;;;12.13;;
40433;SDS011;26146;51.114;5.654;2022-11-13T00:38:38;23.00;;;12.10;;
40433;SDS011;26146;51.114;5.654;2022-11-13T00:42:39;24.53;;;12.63;;
40433;SDS011;26146;51.114;5.654;2022-11-13T00:46:40;25.17;;;12.83;;
40433;SDS011;26146;51.114;5.654;2022-11-13T00:50:41;26.37;;;14.47;;
40433;SDS011;26146;51.114;5.654;2022-11-13T00:54:42;24.23;;;13.20;;
40433;SDS011;26146;51.114;5.654;2022-11-13T00:58:43;24.93;;;13.67;;
40433;SDS011;26146;51.114;5.654;2022-11-13T01:02:43;20.53;;;12.53;;
40433;SDS011;26146;51.114;5.654;2022-11-13T01:06:44;22.87;;;12.93;;
40433;SDS011;26146;51.114;5.654;2022-11-13T01:10:46;21.03;;;12.53;;
40433;SDS011;26146;51.114;5.654;2022-11-13T01:14:48;22.23;;;12.47;;
40433;SDS011;26146;51.114;5.654;2022-11-13T01:18:49;22.97;;;12.57;;
40433;SDS011;26146;51.114;5.654;2022-11-13T01:22:52;21.40;;;12.00;;
40433;SDS011;26146;51.114;5.654;2022-11-13T01:26:55;21.20;;;11.93;;
40433;SDS011;26146;51.114;5.654;2022-11-13T01:30:58;20.23;;;11.80;;
40433;SDS011;26146;51.114;5.654;2022-11-13T01:34:59;22.17;;;11.83;;
40433;SDS011;26146;51.114;5.654;2022-11-13T01:39:00;20.10;;;11.23;;
40433;SDS011;26146;51.114;5.654;2022-11-13T01:43:13;19.73;;;11.47;;
40433;SDS011;26146;51.114;5.654;2022-11-13T01:47:29;18.93;;;11.20;;
40433;SDS011;26146;51.114;5.654;2022-11-13T01:51:32;19.77;;;11.13;;
40433;SDS011;26146;51.114;5.654;2022-11-13T01:55:40;19.73;;;11.17;;
40433;SDS011;26146;51.114;5.654;2022-11-13T01:59:45;17.57;;;10.10;;
40433;SDS011;26146;51.114;5.654;2022-11-13T02:03:52;17.50;;;10.57;;
40433;SDS011;26146;51.114;5.654;2022-11-13T02:07:53;18.43;;;9.83;;
40433;SDS011;26146;51.114;5.654;2022-11-13T02:11:54;18.93;;;9.97;;
40433;SDS011;26146;51.114;5.654;2022-11-13T02:15:55;17.80;;;9.67;;
40433;SDS011;26146;51.114;5.654;2022-11-13T02:19:58;19.23;;;9.90;;
40433;SDS011;26146;51.114;5.654;2022-11-13T02:28:22;16.10;;;9.17;;
40433;SDS011;26146;51.114;5.654;2022-11-13T02:32:23;19.30;;;10.10;;
40433;SDS011;26146;51.114;5.654;2022-11-13T02:36:24;19.77;;;9.83;;
40433;SDS011;26146;51.114;5.654;2022-11-13T02:40:28;16.10;;;9.33;;
40433;SDS011;26146;51.114;5.654;2022-11-13T02:44:30;17.53;;;9.63;;
40433;SDS011;26146;51.114;5.654;2022-11-13T02:48:31;18.97;;;9.90;;
40433;SDS011;26146;51.114;5.654;2022-11-13T02:52:32;19.23;;;9.70;;
40433;SDS011;26146;51.114;5.654;2022-11-13T02:56:33;15.60;;;9.27;;
40433;SDS011;26146;51.114;5.654;2022-11-13T03:00:33;19.77;;;9.90;;
40433;SDS011;26146;51.114;5.654;2022-11-13T03:04:37;16.17;;;9.20;;
40433;SDS011;26146;51.114;5.654;2022-11-13T03:08:38;17.40;;;9.57;;
40433;SDS011;26146;51.114;5.654;2022-11-13T03:12:39;19.53;;;10.50;;
40433;SDS011;26146;51.114;5.654;2022-11-13T03:16:40;19.40;;;10.23;;
40433;SDS011;26146;51.114;5.654;2022-11-13T03:20:41;16.63;;;9.70;;
40433;SDS011;26146;51.114;5.654;2022-11-13T03:24:43;17.70;;;10.13;;
40433;SDS011;26146;51.114;5.654;2022-11-13T03:28:44;18.57;;;10.20;;
40433;SDS011;26146;51.114;5.654;2022-11-13T03:32:45;17.40;;;9.97;;
40433;SDS011;26146;51.114;5.654;2022-11-13T03:36:46;17.87;;;10.20;;
40433;SDS011;26146;51.114;5.654;2022-11-13T03:40:49;15.83;;;9.57;;
40433;SDS011;26146;51.114;5.654;2022-11-13T03:44:51;17.97;;;9.67;;
40433;SDS011;26146;51.114;5.654;2022-11-13T03:48:52;17.93;;;8.93;;
40433;SDS011;26146;51.114;5.654;2022-11-13T03:52:52;18.80;;;9.57;;
40433;SDS011;26146;51.114;5.654;2022-11-13T03:56:56;16.60;;;9.20;;
40433;SDS011;26146;51.114;5.654;2022-11-13T04:05:00;17.77;;;9.40;;
40433;SDS011;26146;51.114;5.654;2022-11-13T04:09:01;18.30;;;9.50;;
40433;SDS011;26146;51.114;5.654;2022-11-13T04:13:01;18.97;;;9.73;;
40433;SDS011;26146;51.114;5.654;2022-11-13T04:17:02;19.57;;;9.77;;
40433;SDS011;26146;51.114;5.654;2022-11-13T04:21:04;17.00;;;9.57;;
40433;SDS011;26146;51.114;5.654;2022-11-13T04:25:05;18.50;;;9.97;;
40433;SDS011;26146;51.114;5.654;2022-11-13T04:29:07;16.63;;;9.07;;
40433;SDS011;26146;51.114;5.654;2022-11-13T04:33:08;17.07;;;8.93;;
40433;SDS011;26146;51.114;5.654;2022-11-13T04:37:09;16.37;;;9.27;;
40433;SDS011;26146;51.114;5.654;2022-11-13T04:41:11;17.47;;;8.97;;
40433;SDS011;26146;51.114;5.654;2022-11-13T04:45:31;18.57;;;9.30;;
40433;SDS011;26146;51.114;5.654;2022-11-13T04:49:33;17.27;;;9.40;;
40433;SDS011;26146;51.114;5.654;2022-11-13T04:53:34;20.33;;;10.23;;
40433;SDS011;26146;51.114;5.654;2022-11-13T04:57:35;20.70;;;10.37;;
40433;SDS011;26146;51.114;5.654;2022-11-13T05:01:36;18.10;;;10.03;;
40433;SDS011;26146;51.114;5.654;2022-11-13T05:05:37;19.43;;;10.23;;
40433;SDS011;26146;51.114;5.654;2022-11-13T05:09:38;18.90;;;10.00;;
40433;SDS011;26146;51.114;5.654;2022-11-13T05:13:39;18.33;;;10.00;;
40433;SDS011;26146;51.114;5.654;2022-11-13T05:17:40;17.10;;;9.43;;
40433;SDS011;26146;51.114;5.654;2022-11-13T05:21:41;19.33;;;9.43;;
40433;SDS011;26146;51.114;5.654;2022-11-13T05:25:42;16.93;;;9.03;;
40433;SDS011;26146;51.114;5.654;2022-11-13T05:29:43;17.20;;;9.20;;
40433;SDS011;26146;51.114;5.654;2022-11-13T05:33:44;17.23;;;8.83;;
40433;SDS011;26146;51.114;5.654;2022-11-13T05:37:45;17.90;;;8.73;;
40433;SDS011;26146;51.114;5.654;2022-11-13T05:41:46;15.47;;;8.40;;
40433;SDS011;26146;51.114;5.654;2022-11-13T05:45:46;18.40;;;8.90;;
40433;SDS011;26146;51.114;5.654;2022-11-13T05:49:47;14.87;;;8.07;;
40433;SDS011;26146;51.114;5.654;2022-11-13T05:53:48;16.43;;;8.27;;
40433;SDS011;26146;51.114;5.654;2022-11-13T05:57:50;15.00;;;7.67;;
40433;SDS011;26146;51.114;5.654;2022-11-13T06:01:51;14.23;;;8.00;;
40433;SDS011;26146;51.114;5.654;2022-11-13T06:05:51;14.87;;;8.20;;
40433;SDS011;26146;51.114;5.654;2022-11-13T06:09:52;14.67;;;8.03;;
40433;SDS011;26146;51.114;5.654;2022-11-13T06:13:56;15.37;;;8.03;;
40433;SDS011;26146;51.114;5.654;2022-11-13T06:18:08;15.53;;;8.17;;
40433;SDS011;26146;51.114;5.654;2022-11-13T06:22:09;13.27;;;6.97;;
40433;SDS011;26146;51.114;5.654;2022-11-13T06:30:18;12.87;;;6.80;;
40433;SDS011;26146;51.114;5.654;2022-11-13T06:34:19;13.87;;;7.23;;
40433;SDS011;26146;51.114;5.654;2022-11-13T06:38:20;14.00;;;7.07;;
40433;SDS011;26146;51.114;5.654;2022-11-13T06:42:23;14.10;;;7.60;;
40433;SDS011;26146;51.114;5.654;2022-11-13T06:46:27;15.20;;;7.77;;
40433;SDS011;26146;51.114;5.654;2022-11-13T06:50:29;16.23;;;8.73;;
40433;SDS011;26146;51.114;5.654;2022-11-13T06:54:30;14.90;;;8.33;;
40433;SDS011;26146;51.114;5.654;2022-11-13T06:58:31;15.53;;;8.13;;
40433;SDS011;26146;51.114;5.654;2022-11-13T07:02:32;15.27;;;8.17;;
40433;SDS011;26146;51.114;5.654;2022-11-13T07:06:33;14.97;;;7.80;;
40433;SDS011;26146;51.114;5.654;2022-11-13T07:10:34;15.30;;;7.50;;
40433;SDS011;26146;51.114;5.654;2022-11-13T07:14:35;16.53;;;8.30;;
40433;SDS011;26146;51.114;5.654;2022-11-13T07:18:35;14.80;;;7.83;;
40433;SDS011;26146;51.114;5.654;2022-11-13T07:22:36;16.80;;;8.23;;
40433;SDS011;26146;51.114;5.654;2022-11-13T07:26:37;17.70;;;8.17;;
40433;SDS011;26146;51.114;5.654;2022-11-13T07:30:38;16.20;;;8.47;;
40433;SDS011;26146;51.114;5.654;2022-11-13T07:34:39;16.10;;;8.20;;
40433;SDS011;26146;51.114;5.654;2022-11-13T07:38:40;17.20;;;8.77;;
40433;SDS011;26146;51.114;5.654;2022-11-13T07:42:41;16.03;;;8.87;;
40433;SDS011;26146;51.114;5.654;2022-11-13T07:46:44;16.17;;;8.80;;
40433;SDS011;26146;51.114;5.654;2022-11-13T07:50:45;21.97;;;10.97;;
40433;SDS011;26146;51.114;5.654;2022-11-13T07:54:46;17.70;;;9.77;;
40433;SDS011;26146;51.114;5.654;2022-11-13T07:58:47;17.70;;;9.83;;
40433;SDS011;26146;51.114;5.654;2022-11-13T08:02:48;17.67;;;9.67;;
40433;SDS011;26146;51.114;5.654;2022-11-13T08:06:49;18.20;;;9.77;;
40433;SDS011;26146;51.114;5.654;2022-11-13T08:10:50;24.93;;;14.33;;
40433;SDS011;26146;51.114;5.654;2022-11-13T08:14:51;19.73;;;11.37;;
40433;SDS011;26146;51.114;5.654;2022-11-13T08:18:52;19.50;;;9.67;;
40433;SDS011;26146;51.114;5.654;2022-11-13T08:22:57;18.93;;;10.20;;
40433;SDS011;26146;51.114;5.654;2022-11-13T08:26:59;18.03;;;9.67;;
40433;SDS011;26146;51.114;5.654;2022-11-13T08:31:00;18.27;;;9.40;;
40433;SDS011;26146;51.114;5.654;2022-11-13T08:35:02;15.60;;;8.83;;
40433;SDS011;26146;51.114;5.654;2022-11-13T08:39:03;15.97;;;8.53;;
40433;SDS011;26146;51.114;5.654;2022-11-13T08:43:04;15.83;;;8.43;;
40433;SDS011;26146;51.114;5.654;2022-11-13T08:47:05;14.83;;;8.30;;
40433;SDS011;26146;51.114;5.654;2022-11-13T08:51:06;16.07;;;7.73;;
40433;SDS011;26146;51.114;5.654;2022-11-13T08:55:09;14.33;;;7.80;;
40433;SDS011;26146;51.114;5.654;2022-11-13T08:59:10;15.30;;;7.93;;
40433;SDS011;26146;51.114;5.654;2022-11-13T09:03:11;17.33;;;8.37;;
40433;SDS011;26146;51.114;5.654;2022-11-13T09:07:12;15.17;;;8.40;;
40433;SDS011;26146;51.114;5.654;2022-11-13T09:11:13;15.23;;;8.27;;
40433;SDS011;26146;51.114;5.654;2022-11-13T09:15:14;13.90;;;8.00;;
40433;SDS011;26146;51.114;5.654;2022-11-13T09:19:15;14.67;;;8.13;;
40433;SDS011;26146;51.114;5.654;2022-11-13T09:23:16;13.53;;;7.50;;
40433;SDS011;26146;51.114;5.654;2022-11-13T09:27:17;13.87;;;7.73;;
40433;SDS011;26146;51.114;5.654;2022-11-13T09:31:18;16.20;;;8.07;;
40433;SDS011;26146;51.114;5.654;2022-11-13T09:35:20;14.43;;;8.37;;
40433;SDS011;26146;51.114;5.654;2022-11-13T09:39:33;13.47;;;7.93;;
40433;SDS011;26146;51.114;5.654;2022-11-13T09:47:54;16.33;;;9.60;;
40433;SDS011;26146;51.114;5.654;2022-11-13T09:52:01;19.50;;;9.55;;
40433;SDS011;26146;51.114;5.654;2022-11-13T10:00:19;12.60;;;7.77;;
40433;SDS011;26146;51.114;5.654;2022-11-13T10:04:23;12.77;;;7.37;;
40433;SDS011;26146;51.114;5.654;2022-11-13T10:12:45;12.90;;;7.33;;
40433;SDS011;26146;51.114;5.654;2022-11-13T10:20:58;14.73;;;7.57;;
40433;SDS011;26146;51.114;5.654;2022-11-13T10:25:16;13.13;;;7.20;;
40433;SDS011;26146;51.114;5.654;2022-11-13T10:29:22;13.33;;;7.27;;
40433;SDS011;26146;51.114;5.654;2022-11-13T10:33:27;11.55;;;6.72;;
40433;SDS011;26146;51.114;5.654;2022-11-13T10:37:45;11.33;;;6.10;;
40433;SDS011;26146;51.114;5.654;2022-11-13T10:41:55;11.50;;;6.17;;
40433;SDS011;26146;51.114;5.654;2022-11-13T10:45:57;11.60;;;6.00;;
40433;SDS011;26146;51.114;5.654;2022-11-13T10:50:09;11.07;;;5.77;;
40433;SDS011;26146;51.114;5.654;2022-11-13T10:54:23;10.73;;;5.60;;
40433;SDS011;26146;51.114;5.654;2022-11-13T10:58:27;11.13;;;5.20;;
40433;SDS011;26146;51.114;5.654;2022-11-13T11:02:28;10.30;;;5.20;;
40433;SDS011;26146;51.114;5.654;2022-11-13T11:06:35;10.23;;;4.87;;
40433;SDS011;26146;51.114;5.654;2022-11-13T11:10:38;9.43;;;4.60;;
40433;SDS011;26146;51.114;5.654;2022-11-13T11:15:04;9.13;;;4.40;;
40433;SDS011;26146;51.114;5.654;2022-11-13T11:19:11;9.67;;;4.33;;
40433;SDS011;26146;51.114;5.654;2022-11-13T11:27:25;9.90;;;4.25;;
40433;SDS011;26146;51.114;5.654;2022-11-13T11:31:34;9.93;;;4.73;;
40433;SDS011;26146;51.114;5.654;2022-11-13T11:35:50;9.50;;;4.60;;
40433;SDS011;26146;51.114;5.654;2022-11-13T11:40:02;10.63;;;4.20;;
40433;SDS011;26146;51.114;5.654;2022-11-13T11:48:45;8.52;;;4.22;;
40433;SDS011;26146;51.114;5.654;2022-11-13T11:52:59;8.88;;;3.88;;
40433;SDS011;26146;51.114;5.654;2022-11-13T12:01:55;8.63;;;4.00;;
40433;SDS011;26146;51.114;5.654;2022-11-13T12:14:52;8.05;;;3.80;;
40433;SDS011;26146;51.114;5.654;2022-11-13T12:24:14;8.40;;;3.60;;
40433;SDS011;26146;51.114;5.654;2022-11-13T12:28:44;8.05;;;3.72;;
40433;SDS011;26146;51.114;5.654;2022-11-13T12:37:12;7.53;;;3.00;;
40433;SDS011;26146;51.114;5.654;2022-11-13T12:45:54;7.68;;;3.00;;
40433;SDS011;26146;51.114;5.654;2022-11-13T12:50:04;7.20;;;3.10;;
40433;SDS011;26146;51.114;5.654;2022-11-13T13:16:23;7.97;;;2.88;;
40433;SDS011;26146;51.114;5.654;2022-11-13T13:20:36;6.97;;;2.78;;
40433;SDS011;26146;51.114;5.654;2022-11-13T13:24:39;6.85;;;2.60;;
40433;SDS011;26146;51.114;5.654;2022-11-13T13:28:52;6.80;;;2.60;;
40433;SDS011;26146;51.114;5.654;2022-11-13T13:37:16;6.50;;;2.70;;
40433;SDS011;26146;51.114;5.654;2022-11-13T13:46:02;6.28;;;2.10;;
40433;SDS011;26146;51.114;5.654;2022-11-13T13:50:12;6.00;;;2.03;;
40433;SDS011;26146;51.114;5.654;2022-11-13T13:54:19;6.50;;;2.03;;
40433;SDS011;26146;51.114;5.654;2022-11-13T13:58:25;5.47;;;1.60;;
40433;SDS011;26146;51.114;5.654;2022-11-13T14:02:33;5.07;;;1.60;;
40433;SDS011;26146;51.114;5.654;2022-11-13T14:06:47;5.57;;;1.60;;
40433;SDS011;26146;51.114;5.654;2022-11-13T14:10:53;5.25;;;1.40;;
40433;SDS011;26146;51.114;5.654;2022-11-13T14:14:54;5.40;;;1.52;;
40433;SDS011;26146;51.114;5.654;2022-11-13T14:19:02;5.82;;;1.50;;
40433;SDS011;26146;51.114;5.654;2022-11-13T14:23:04;5.55;;;1.60;;
40433;SDS011;26146;51.114;5.654;2022-11-13T14:27:06;5.82;;;1.70;;
40433;SDS011;26146;51.114;5.654;2022-11-13T14:31:11;5.78;;;1.63;;
40433;SDS011;26146;51.114;5.654;2022-11-13T14:35:17;5.47;;;1.40;;
40433;SDS011;26146;51.114;5.654;2022-11-13T14:39:23;7.13;;;1.52;;
40433;SDS011;26146;51.114;5.654;2022-11-13T14:43:29;5.50;;;1.50;;
40433;SDS011;26146;51.114;5.654;2022-11-13T14:47:31;5.30;;;1.33;;
40433;SDS011;26146;51.114;5.654;2022-11-13T14:51:36;6.00;;;1.60;;
40433;SDS011;26146;51.114;5.654;2022-11-13T14:55:49;5.18;;;1.50;;
40433;SDS011;26146;51.114;5.654;2022-11-13T14:59:51;5.78;;;1.67;;
40433;SDS011;26146;51.114;5.654;2022-11-13T15:03:52;5.60;;;1.45;;
40433;SDS011;26146;51.114;5.654;2022-11-13T15:07:53;4.82;;;1.55;;
40433;SDS011;26146;51.114;5.654;2022-11-13T15:11:55;6.03;;;1.80;;
40433;SDS011;26146;51.114;5.654;2022-11-13T15:15:56;6.18;;;1.90;;
40433;SDS011;26146;51.114;5.654;2022-11-13T15:19:57;5.90;;;1.60;;
40433;SDS011;26146;51.114;5.654;2022-11-13T15:23:58;5.30;;;1.70;;
40433;SDS011;26146;51.114;5.654;2022-11-13T15:28:00;5.97;;;1.92;;
40433;SDS011;26146;51.114;5.654;2022-11-13T15:32:01;6.68;;;2.20;;
40433;SDS011;26146;51.114;5.654;2022-11-13T15:36:02;6.13;;;2.05;;
40433;SDS011;26146;51.114;5.654;2022-11-13T15:40:03;11.18;;;4.53;;
40433;SDS011;26146;51.114;5.654;2022-11-13T15:44:12;13.15;;;5.47;;
40433;SDS011;26146;51.114;5.654;2022-11-13T15:48:14;18.67;;;8.55;;
40433;SDS011;26146;51.114;5.654;2022-11-13T15:52:15;14.63;;;6.68;;
40433;SDS011;26146;51.114;5.654;2022-11-13T15:56:18;10.63;;;4.88;;
40433;SDS011;26146;51.114;5.654;2022-11-13T16:00:22;8.73;;;3.58;;
40433;SDS011;26146;51.114;5.654;2022-11-13T16:04:24;11.90;;;4.80;;
40433;SDS011;26146;51.114;5.654;2022-11-13T16:08:25;9.27;;;4.28;;
40433;SDS011;26146;51.114;5.654;2022-11-13T16:12:26;11.77;;;4.45;;
40433;SDS011;26146;51.114;5.654;2022-11-13T16:16:29;10.95;;;3.90;;
40433;SDS011;26146;51.114;5.654;2022-11-13T16:20:33;9.20;;;4.07;;
40433;SDS011;26146;51.114;5.654;2022-11-13T16:24:34;12.07;;;3.92;;
40433;SDS011;26146;51.114;5.654;2022-11-13T16:28:35;9.43;;;3.90;;
40433;SDS011;26146;51.114;5.654;2022-11-13T16:32:37;7.28;;;2.97;;
40433;SDS011;26146;51.114;5.654;2022-11-13T16:36:38;8.63;;;3.33;;
40433;SDS011;26146;51.114;5.654;2022-11-13T16:40:39;8.20;;;3.00;;
40433;SDS011;26146;51.114;5.654;2022-11-13T16:44:42;9.43;;;2.90;;
40433;SDS011;26146;51.114;5.654;2022-11-13T16:48:43;7.30;;;2.70;;
40433;SDS011;26146;51.114;5.654;2022-11-13T16:52:44;8.83;;;3.60;;
40433;SDS011;26146;51.114;5.654;2022-11-13T16:56:45;8.20;;;3.50;;
40433;SDS011;26146;51.114;5.654;2022-11-13T17:00:46;11.93;;;5.93;;
40433;SDS011;26146;51.114;5.654;2022-11-13T17:04:47;11.40;;;4.90;;
40433;SDS011;26146;51.114;5.654;2022-11-13T17:08:51;10.43;;;4.50;;
40433;SDS011;26146;51.114;5.654;2022-11-13T17:12:53;12.10;;;4.93;;
40433;SDS011;26146;51.114;5.654;2022-11-13T17:16:54;11.10;;;4.57;;
40433;SDS011;26146;51.114;5.654;2022-11-13T17:20:55;12.10;;;5.60;;
40433;SDS011;26146;51.114;5.654;2022-11-13T17:24:56;12.80;;;5.23;;
40433;SDS011;26146;51.114;5.654;2022-11-13T17:28:57;12.23;;;6.00;;
40433;SDS011;26146;51.114;5.654;2022-11-13T17:32:59;12.40;;;4.63;;
40433;SDS011;26146;51.114;5.654;2022-11-13T17:37:02;13.77;;;7.10;;
40433;SDS011;26146;51.114;5.654;2022-11-13T17:41:07;12.17;;;5.97;;
40433;SDS011;26146;51.114;5.654;2022-11-13T17:45:10;13.70;;;6.37;;
40433;SDS011;26146;51.114;5.654;2022-11-13T17:49:10;13.23;;;7.07;;
40433;SDS011;26146;51.114;5.654;2022-11-13T17:53:11;13.27;;;6.93;;
40433;SDS011;26146;51.114;5.654;2022-11-13T17:57:15;14.43;;;6.70;;
40433;SDS011;26146;51.114;5.654;2022-11-13T18:01:19;12.83;;;6.60;;
40433;SDS011;26146;51.114;5.654;2022-11-13T18:05:23;13.37;;;6.20;;
40433;SDS011;26146;51.114;5.654;2022-11-13T18:09:24;13.37;;;6.23;;
40433;SDS011;26146;51.114;5.654;2022-11-13T18:13:25;14.33;;;6.80;;
40433;SDS011;26146;51.114;5.654;2022-11-13T18:17:26;12.73;;;6.33;;
40433;SDS011;26146;51.114;5.654;2022-11-13T18:21:28;12.73;;;6.20;;
40433;SDS011;26146;51.114;5.654;2022-11-13T18:25:33;13.60;;;6.17;;
40433;SDS011;26146;51.114;5.654;2022-11-13T18:29:35;12.93;;;5.77;;
40433;SDS011;26146;51.114;5.654;2022-11-13T18:33:35;11.23;;;5.67;;
40433;SDS011;26146;51.114;5.654;2022-11-13T18:37:37;12.10;;;5.90;;
40433;SDS011;26146;51.114;5.654;2022-11-13T18:41:38;12.07;;;5.83;;
40433;SDS011;26146;51.114;5.654;2022-11-13T18:45:39;13.20;;;6.10;;
40433;SDS011;26146;51.114;5.654;2022-11-13T18:49:40;12.93;;;6.17;;
40433;SDS011;26146;51.114;5.654;2022-11-13T18:53:42;13.17;;;5.93;;
40433;SDS011;26146;51.114;5.654;2022-11-13T18:57:44;16.23;;;8.40;;
40433;SDS011;26146;51.114;5.654;2022-11-13T19:01:45;22.67;;;11.33;;
40433;SDS011;26146;51.114;5.654;2022-11-13T19:05:46;17.33;;;8.30;;
40433;SDS011;26146;51.114;5.654;2022-11-13T19:09:48;20.50;;;9.73;;
40433;SDS011;26146;51.114;5.654;2022-11-13T19:13:50;17.70;;;9.17;;
40433;SDS011;26146;51.114;5.654;2022-11-13T19:17:52;20.37;;;9.97;;
40433;SDS011;26146;51.114;5.654;2022-11-13T19:21:53;22.67;;;10.33;;
40433;SDS011;26146;51.114;5.654;2022-11-13T19:25:54;25.83;;;12.00;;
40433;SDS011;26146;51.114;5.654;2022-11-13T19:29:55;24.90;;;11.77;;
40433;SDS011;26146;51.114;5.654;2022-11-13T19:34:00;21.07;;;10.93;;
40433;SDS011;26146;51.114;5.654;2022-11-13T19:38:03;24.93;;;11.33;;
40433;SDS011;26146;51.114;5.654;2022-11-13T19:42:04;21.23;;;10.00;;
40433;SDS011;26146;51.114;5.654;2022-11-13T19:46:06;25.47;;;12.80;;
40433;SDS011;26146;51.114;5.654;2022-11-13T19:50:08;38.20;;;19.13;;
40433;SDS011;26146;51.114;5.654;2022-11-13T19:54:11;36.83;;;17.93;;
40433;SDS011;26146;51.114;5.654;2022-11-13T19:58:23;36.20;;;15.87;;
40433;SDS011;26146;51.114;5.654;2022-11-13T20:02:24;25.43;;;12.00;;
40433;SDS011;26146;51.114;5.654;2022-11-13T20:06:25;22.50;;;10.57;;
40433;SDS011;26146;51.114;5.654;2022-11-13T20:10:28;18.07;;;8.57;;
40433;SDS011;26146;51.114;5.654;2022-11-13T20:14:30;15.07;;;7.20;;
40433;SDS011;26146;51.114;5.654;2022-11-13T20:18:31;11.73;;;5.50;;
40433;SDS011;26146;51.114;5.654;2022-11-13T20:22:33;11.33;;;5.67;;
40433;SDS011;26146;51.114;5.654;2022-11-13T20:26:34;12.70;;;5.87;;
40433;SDS011;26146;51.114;5.654;2022-11-13T20:30:37;12.90;;;5.83;;
40433;SDS011;26146;51.114;5.654;2022-11-13T20:34:38;12.33;;;5.60;;
40433;SDS011;26146;51.114;5.654;2022-11-13T20:38:39;14.80;;;6.53;;
40433;SDS011;26146;51.114;5.654;2022-11-13T20:42:43;14.07;;;6.43;;
40433;SDS011;26146;51.114;5.654;2022-11-13T20:46:44;13.03;;;6.27;;
40433;SDS011;26146;51.114;5.654;2022-11-13T20:50:45;14.83;;;6.70;;
40433;SDS011;26146;51.114;5.654;2022-11-13T20:54:48;16.00;;;7.53;;
40433;SDS011;26146;51.114;5.654;2022-11-13T20:58:49;16.20;;;7.80;;
40433;SDS011;26146;51.114;5.654;2022-11-13T21:02:50;15.07;;;7.53;;
40433;SDS011;26146;51.114;5.654;2022-11-13T21:06:51;16.77;;;7.00;;
40433;SDS011;26146;51.114;5.654;2022-11-13T21:10:52;15.23;;;6.87;;
40433;SDS011;26146;51.114;5.654;2022-11-13T21:14:53;13.33;;;6.60;;
40433;SDS011;26146;51.114;5.654;2022-11-13T21:18:54;12.80;;;5.97;;
40433;SDS011;26146;51.114;5.654;2022-11-13T21:22:56;14.17;;;6.27;;
40433;SDS011;26146;51.114;5.654;2022-11-13T21:26:57;11.57;;;6.00;;
40433;SDS011;26146;51.114;5.654;2022-11-13T21:31:02;12.60;;;5.87;;
40433;SDS011;26146;51.114;5.654;2022-11-13T21:35:06;12.83;;;6.43;;
40433;SDS011;26146;51.114;5.654;2022-11-13T21:39:07;13.87;;;6.30;;
40433;SDS011;26146;51.114;5.654;2022-11-13T21:43:08;13.03;;;6.07;;
40433;SDS011;26146;51.114;5.654;2022-11-13T21:47:09;13.03;;;5.60;;
40433;SDS011;26146;51.114;5.654;2022-11-13T21:51:11;10.83;;;5.60;;
40433;SDS011;26146;51.114;5.654;2022-11-13T21:55:14;13.20;;;6.43;;
40433;SDS011;26146;51.114;5.654;2022-11-13T21:59:15;16.83;;;8.33;;
40433;SDS011;26146;51.114;5.654;2022-11-13T22:03:16;13.43;;;6.27;;
40433;SDS011;26146;51.114;5.654;2022-11-13T22:07:17;13.60;;;5.87;;
40433;SDS011;26146;51.114;5.654;2022-11-13T22:11:21;12.87;;;6.07;;
40433;SDS011;26146;51.114;5.654;2022-11-13T22:15:30;12.40;;;5.90;;
40433;SDS011;26146;51.114;5.654;2022-11-13T22:19:31;11.93;;;5.53;;
40433;SDS011;26146;51.114;5.654;2022-11-13T22:23:32;11.30;;;5.40;;
40433;SDS011;26146;51.114;5.654;2022-11-13T22:27:34;13.43;;;5.50;;
40433;SDS011;26146;51.114;5.654;2022-11-13T22:31:35;11.47;;;5.53;;
40433;SDS011;26146;51.114;5.654;2022-11-13T22:35:36;13.07;;;6.20;;
40433;SDS011;26146;51.114;5.654;2022-11-13T22:39:37;11.77;;;5.30;;
40433;SDS011;26146;51.114;5.654;2022-11-13T22:43:39;11.23;;;4.67;;
40433;SDS011;26146;51.114;5.654;2022-11-13T22:47:41;12.13;;;5.50;;
40433;SDS011;26146;51.114;5.654;2022-11-13T22:51:42;12.57;;;5.50;;
40433;SDS011;26146;51.114;5.654;2022-11-13T22:55:42;11.97;;;5.77;;
40433;SDS011;26146;51.114;5.654;2022-11-13T22:59:43;13.77;;;6.50;;
40433;SDS011;26146;51.114;5.654;2022-11-13T23:03:45;13.17;;;6.30;;
40433;SDS011;26146;51.114;5.654;2022-11-13T23:07:47;12.17;;;6.13;;
40433;SDS011;26146;51.114;5.654;2022-11-13T23:11:48;14.53;;;6.37;;
40433;SDS011;26146;51.114;5.654;2022-11-13T23:15:49;13.30;;;6.00;;
40433;SDS011;26146;51.114;5.654;2022-11-13T23:19:50;12.73;;;5.90;;
40433;SDS011;26146;51.114;5.654;2022-11-13T23:23:51;13.13;;;5.93;;
40433;SDS011;26146;51.114;5.654;2022-11-13T23:27:53;11.60;;;6.10;;
40433;SDS011;26146;51.114;5.654;2022-11-13T23:31:54;14.87;;;7.30;;
40433;SDS011;26146;51.114;5.654;2022-11-13T23:35:55;14.20;;;7.07;;
40433;SDS011;26146;51.114;5.654;2022-11-13T23:39:56;17.20;;;7.40;;
40433;SDS011;26146;51.114;5.654;2022-11-13T23:43:57;15.73;;;7.30;;
40433;SDS011;26146;51.114;5.654;2022-11-13T23:47:57;16.03;;;8.07;;
40433;SDS011;26146;51.114;5.654;2022-11-13T23:51:59;15.80;;;7.90;;
40433;SDS011;26146;51.114;5.654;2022-11-13T23:56:00;13.60;;;6.90;;
